Portada
METAR-TAF:

METAR-TAF

Aeropuertos :

Marsá Matrú, Egipto

latitud: 31-20N, longitud: 027-13E, altitud: 25 m

Observación

El informe se hizo hace 5 horas y 7 minutos, a las 23:00 UTC
Viento 14 kt del norte-noroeste
Temperatura 24°C
Humedad 69%
Presión 1014 hPa
Visibilidad 10 km o más
Nubes dispersas a una altura de 2000 ft

METAR: HEMM 232300Z 34014KT 9999 SCT020 24/18 Q1014 NOSIG

Hora: 06:07 (04:07 UTC)

Pronóstico

El informe se hizo hace 5 horas y 7 minutos, a las 23:00 UTC
Pronóstico válido del 24 a las 00 UTC al 25 a las 06 UTC
Viento 14 kt del norte
Visibilidad 10 km o más
Nubes dispersas a una altura de 2000 ft
Temporalmente
del 24 a las 00 UTC al 24 a las 06 UTC
Visibilidad: 8000 m
Cielo nuboso a una altura de 2000 ft
lluvia ligera

TAF: HEMM 232300Z 2400/2506 36014KT 9999 SCT020 TEMPO 2400/2406 8000 -RA BKN020

Observaciones y pronósticos meteorológicos de más de 4000 aeropuertos (mensajes METAR y TAF).

Los puntos amarillos y rojos representan las estaciones disponibles.

Ponga el ratón en el punto deseado para ver el nombre de la estación.

Haga clic para ver las observaciones y los pronósticos meteorológicos.

Para cambiar el mapa : haga clic en los botones verdes con una cruz de color negro para hacer un zoom, en el botón verde con un guión para alejar o en las flechas verdes para mapas adyacentes.


METAR-TAF: